sensor_id;sensor_type;location;lat;lon;timestamp;P1;durP1;ratioP1;P2;durP2;ratioP2
73599;SDS011;61877;48.246;9.220;2022-09-12T00:02:18;9.10;;;4.27;;
73599;SDS011;61877;48.246;9.220;2022-09-12T00:04:44;9.47;;;4.40;;
73599;SDS011;61877;48.246;9.220;2022-09-12T00:07:09;10.23;;;4.30;;
73599;SDS011;61877;48.246;9.220;2022-09-12T00:09:36;8.47;;;3.97;;
73599;SDS011;61877;48.246;9.220;2022-09-12T00:12:01;16.85;;;3.70;;
73599;SDS011;61877;48.246;9.220;2022-09-12T00:14:26;11.17;;;4.40;;
73599;SDS011;61877;48.246;9.220;2022-09-12T00:16:52;8.75;;;4.10;;
73599;SDS011;61877;48.246;9.220;2022-09-12T00:19:21;9.03;;;4.47;;
73599;SDS011;61877;48.246;9.220;2022-09-12T00:21:47;9.30;;;4.55;;
73599;SDS011;61877;48.246;9.220;2022-09-12T00:24:12;8.87;;;4.20;;
73599;SDS011;61877;48.246;9.220;2022-09-12T00:26:39;11.10;;;4.60;;
73599;SDS011;61877;48.246;9.220;2022-09-12T00:29:04;11.38;;;4.97;;
73599;SDS011;61877;48.246;9.220;2022-09-12T00:31:30;10.53;;;4.90;;
73599;SDS011;61877;48.246;9.220;2022-09-12T00:33:56;9.50;;;4.50;;
73599;SDS011;61877;48.246;9.220;2022-09-12T00:36:23;10.27;;;4.80;;
73599;SDS011;61877;48.246;9.220;2022-09-12T00:38:49;10.57;;;4.40;;
73599;SDS011;61877;48.246;9.220;2022-09-12T00:41:16;12.02;;;4.60;;
73599;SDS011;61877;48.246;9.220;2022-09-12T00:43:45;10.13;;;4.78;;
73599;SDS011;61877;48.246;9.220;2022-09-12T00:46:13;9.85;;;4.72;;
73599;SDS011;61877;48.246;9.220;2022-09-12T00:48:48;10.80;;;4.60;;
73599;SDS011;61877;48.246;9.220;2022-09-12T00:51:16;9.20;;;4.35;;
73599;SDS011;61877;48.246;9.220;2022-09-12T00:53:43;9.57;;;4.00;;
73599;SDS011;61877;48.246;9.220;2022-09-12T00:56:12;10.65;;;4.15;;
73599;SDS011;61877;48.246;9.220;2022-09-12T00:58:42;10.85;;;4.70;;
73599;SDS011;61877;48.246;9.220;2022-09-12T01:01:13;11.10;;;4.70;;
73599;SDS011;61877;48.246;9.220;2022-09-12T01:03:39;11.23;;;5.22;;
73599;SDS011;61877;48.246;9.220;2022-09-12T01:06:04;10.20;;;4.60;;
73599;SDS011;61877;48.246;9.220;2022-09-12T01:08:35;12.57;;;4.78;;
73599;SDS011;61877;48.246;9.220;2022-09-12T01:11:03;10.27;;;4.40;;
73599;SDS011;61877;48.246;9.220;2022-09-12T01:13:29;11.15;;;4.80;;
73599;SDS011;61877;48.246;9.220;2022-09-12T01:15:57;10.75;;;4.88;;
73599;SDS011;61877;48.246;9.220;2022-09-12T01:18:24;12.07;;;4.80;;
73599;SDS011;61877;48.246;9.220;2022-09-12T01:21:05;14.18;;;4.72;;
73599;SDS011;61877;48.246;9.220;2022-09-12T01:26:56;13.63;;;5.10;;
73599;SDS011;61877;48.246;9.220;2022-09-12T01:29:55;13.13;;;5.03;;
73599;SDS011;61877;48.246;9.220;2022-09-12T01:32:32;11.57;;;4.88;;
73599;SDS011;61877;48.246;9.220;2022-09-12T01:35:08;11.60;;;4.72;;
73599;SDS011;61877;48.246;9.220;2022-09-12T01:37:43;18.63;;;5.00;;
73599;SDS011;61877;48.246;9.220;2022-09-12T01:40:17;17.77;;;5.10;;
73599;SDS011;61877;48.246;9.220;2022-09-12T01:42:49;19.17;;;5.40;;
73599;SDS011;61877;48.246;9.220;2022-09-12T01:45:22;13.43;;;4.95;;
73599;SDS011;61877;48.246;9.220;2022-09-12T01:47:55;12.88;;;5.00;;
73599;SDS011;61877;48.246;9.220;2022-09-12T01:50:30;12.57;;;5.07;;
73599;SDS011;61877;48.246;9.220;2022-09-12T01:53:00;11.65;;;4.97;;
73599;SDS011;61877;48.246;9.220;2022-09-12T01:55:30;12.05;;;4.93;;
73599;SDS011;61877;48.246;9.220;2022-09-12T01:57:59;13.80;;;5.03;;
73599;SDS011;61877;48.246;9.220;2022-09-12T02:00:29;10.95;;;5.05;;
73599;SDS011;61877;48.246;9.220;2022-09-12T02:02:59;11.63;;;5.10;;
73599;SDS011;61877;48.246;9.220;2022-09-12T02:05:30;12.43;;;4.68;;
73599;SDS011;61877;48.246;9.220;2022-09-12T02:08:00;16.67;;;4.97;;
73599;SDS011;61877;48.246;9.220;2022-09-12T02:10:30;15.38;;;5.13;;
73599;SDS011;61877;48.246;9.220;2022-09-12T02:12:59;13.80;;;5.22;;
73599;SDS011;61877;48.246;9.220;2022-09-12T02:15:31;17.77;;;5.20;;
73599;SDS011;61877;48.246;9.220;2022-09-12T02:18:02;16.13;;;4.80;;
73599;SDS011;61877;48.246;9.220;2022-09-12T02:20:30;19.38;;;5.20;;
73599;SDS011;61877;48.246;9.220;2022-09-12T02:22:58;26.40;;;5.15;;
73599;SDS011;61877;48.246;9.220;2022-09-12T02:25:24;12.82;;;5.43;;
73599;SDS011;61877;48.246;9.220;2022-09-12T02:27:52;12.93;;;5.07;;
73599;SDS011;61877;48.246;9.220;2022-09-12T02:30:23;14.27;;;5.22;;
73599;SDS011;61877;48.246;9.220;2022-09-12T02:32:53;17.45;;;5.95;;
73599;SDS011;61877;48.246;9.220;2022-09-12T02:35:30;13.82;;;5.75;;
73599;SDS011;61877;48.246;9.220;2022-09-12T02:38:03;11.50;;;5.18;;
73599;SDS011;61877;48.246;9.220;2022-09-12T02:40:31;12.90;;;5.50;;
73599;SDS011;61877;48.246;9.220;2022-09-12T02:42:57;10.95;;;5.15;;
73599;SDS011;61877;48.246;9.220;2022-09-12T02:45:24;17.27;;;5.22;;
73599;SDS011;61877;48.246;9.220;2022-09-12T02:47:50;11.63;;;4.22;;
73599;SDS011;61877;48.246;9.220;2022-09-12T02:50:20;14.57;;;5.40;;
73599;SDS011;61877;48.246;9.220;2022-09-12T02:52:47;15.32;;;5.20;;
73599;SDS011;61877;48.246;9.220;2022-09-12T02:55:13;17.00;;;5.05;;
73599;SDS011;61877;48.246;9.220;2022-09-12T02:57:39;18.73;;;5.10;;
73599;SDS011;61877;48.246;9.220;2022-09-12T03:00:05;18.20;;;5.25;;
73599;SDS011;61877;48.246;9.220;2022-09-12T03:02:35;13.20;;;4.63;;
73599;SDS011;61877;48.246;9.220;2022-09-12T03:05:18;13.20;;;4.93;;
73599;SDS011;61877;48.246;9.220;2022-09-12T03:11:04;16.73;;;5.22;;
73599;SDS011;61877;48.246;9.220;2022-09-12T03:13:46;18.42;;;5.35;;
73599;SDS011;61877;48.246;9.220;2022-09-12T03:16:19;18.57;;;5.50;;
73599;SDS011;61877;48.246;9.220;2022-09-12T03:18:54;13.57;;;4.90;;
73599;SDS011;61877;48.246;9.220;2022-09-12T03:21:27;22.77;;;5.40;;
73599;SDS011;61877;48.246;9.220;2022-09-12T03:24:06;17.27;;;4.88;;
73599;SDS011;61877;48.246;9.220;2022-09-12T03:26:38;19.98;;;5.00;;
73599;SDS011;61877;48.246;9.220;2022-09-12T03:29:07;13.80;;;4.93;;
73599;SDS011;61877;48.246;9.220;2022-09-12T03:31:35;11.18;;;4.63;;
73599;SDS011;61877;48.246;9.220;2022-09-12T03:34:01;13.57;;;4.73;;
73599;SDS011;61877;48.246;9.220;2022-09-12T03:36:27;11.52;;;4.70;;
73599;SDS011;61877;48.246;9.220;2022-09-12T03:38:54;10.50;;;4.43;;
73599;SDS011;61877;48.246;9.220;2022-09-12T03:41:21;9.27;;;4.00;;
73599;SDS011;61877;48.246;9.220;2022-09-12T03:43:46;8.60;;;3.90;;
73599;SDS011;61877;48.246;9.220;2022-09-12T03:46:12;18.07;;;5.10;;
73599;SDS011;61877;48.246;9.220;2022-09-12T03:48:37;11.63;;;5.00;;
73599;SDS011;61877;48.246;9.220;2022-09-12T03:51:04;11.37;;;4.20;;
73599;SDS011;61877;48.246;9.220;2022-09-12T03:53:32;15.25;;;5.07;;
73599;SDS011;61877;48.246;9.220;2022-09-12T03:55:58;13.43;;;4.63;;
73599;SDS011;61877;48.246;9.220;2022-09-12T03:58:28;23.30;;;4.90;;
73599;SDS011;61877;48.246;9.220;2022-09-12T04:00:54;17.13;;;4.50;;
73599;SDS011;61877;48.246;9.220;2022-09-12T04:03:19;10.47;;;4.77;;
73599;SDS011;61877;48.246;9.220;2022-09-12T04:05:45;13.20;;;5.47;;
73599;SDS011;61877;48.246;9.220;2022-09-12T04:08:10;14.15;;;5.13;;
73599;SDS011;61877;48.246;9.220;2022-09-12T04:10:36;19.80;;;6.07;;
73599;SDS011;61877;48.246;9.220;2022-09-12T04:13:01;12.20;;;4.67;;
73599;SDS011;61877;48.246;9.220;2022-09-12T04:15:28;11.37;;;4.73;;
73599;SDS011;61877;48.246;9.220;2022-09-12T04:17:53;42.45;;;6.10;;
73599;SDS011;61877;48.246;9.220;2022-09-12T04:20:18;11.47;;;4.83;;
73599;SDS011;61877;48.246;9.220;2022-09-12T04:22:44;14.20;;;4.43;;
73599;SDS011;61877;48.246;9.220;2022-09-12T04:25:09;11.27;;;4.63;;
73599;SDS011;61877;48.246;9.220;2022-09-12T04:27:35;10.57;;;4.70;;
73599;SDS011;61877;48.246;9.220;2022-09-12T04:30:00;10.37;;;4.20;;
73599;SDS011;61877;48.246;9.220;2022-09-12T04:32:27;10.63;;;4.75;;
73599;SDS011;61877;48.246;9.220;2022-09-12T04:34:53;10.90;;;4.60;;
73599;SDS011;61877;48.246;9.220;2022-09-12T04:37:19;11.60;;;4.47;;
73599;SDS011;61877;48.246;9.220;2022-09-12T04:39:44;12.00;;;4.70;;
73599;SDS011;61877;48.246;9.220;2022-09-12T04:42:10;9.97;;;4.30;;
73599;SDS011;61877;48.246;9.220;2022-09-12T04:44:35;14.97;;;4.80;;
73599;SDS011;61877;48.246;9.220;2022-09-12T04:47:00;14.80;;;4.53;;
73599;SDS011;61877;48.246;9.220;2022-09-12T04:49:27;18.50;;;4.90;;
73599;SDS011;61877;48.246;9.220;2022-09-12T04:51:52;13.03;;;4.60;;
73599;SDS011;61877;48.246;9.220;2022-09-12T04:54:18;14.10;;;4.68;;
73599;SDS011;61877;48.246;9.220;2022-09-12T04:56:44;13.60;;;4.27;;
73599;SDS011;61877;48.246;9.220;2022-09-12T04:59:12;11.68;;;4.65;;
73599;SDS011;61877;48.246;9.220;2022-09-12T05:01:37;15.95;;;4.25;;
73599;SDS011;61877;48.246;9.220;2022-09-12T05:04:03;12.23;;;4.57;;
73599;SDS011;61877;48.246;9.220;2022-09-12T05:06:31;9.90;;;4.20;;
73599;SDS011;61877;48.246;9.220;2022-09-12T05:08:58;12.85;;;4.78;;
73599;SDS011;61877;48.246;9.220;2022-09-12T05:11:24;12.40;;;4.17;;
73599;SDS011;61877;48.246;9.220;2022-09-12T05:13:51;15.10;;;4.00;;
73599;SDS011;61877;48.246;9.220;2022-09-12T05:16:17;10.85;;;4.30;;
73599;SDS011;61877;48.246;9.220;2022-09-12T05:18:43;10.45;;;3.90;;
73599;SDS011;61877;48.246;9.220;2022-09-12T05:21:10;30.17;;;4.25;;
73599;SDS011;61877;48.246;9.220;2022-09-12T05:23:38;24.60;;;5.47;;
73599;SDS011;61877;48.246;9.220;2022-09-12T05:26:04;11.32;;;3.85;;
73599;SDS011;61877;48.246;9.220;2022-09-12T05:28:32;14.95;;;4.28;;
73599;SDS011;61877;48.246;9.220;2022-09-12T05:30:59;14.85;;;4.05;;
73599;SDS011;61877;48.246;9.220;2022-09-12T05:33:26;11.00;;;3.78;;
73599;SDS011;61877;48.246;9.220;2022-09-12T05:35:51;9.67;;;3.73;;
73599;SDS011;61877;48.246;9.220;2022-09-12T05:38:19;13.93;;;4.20;;
73599;SDS011;61877;48.246;9.220;2022-09-12T05:40:46;9.30;;;4.07;;
73599;SDS011;61877;48.246;9.220;2022-09-12T05:43:11;22.95;;;4.88;;
73599;SDS011;61877;48.246;9.220;2022-09-12T05:45:36;15.97;;;4.27;;
73599;SDS011;61877;48.246;9.220;2022-09-12T05:48:02;10.87;;;4.00;;
73599;SDS011;61877;48.246;9.220;2022-09-12T05:50:28;15.40;;;4.20;;
73599;SDS011;61877;48.246;9.220;2022-09-12T05:52:53;10.10;;;4.17;;
73599;SDS011;61877;48.246;9.220;2022-09-12T05:55:19;12.73;;;3.87;;
73599;SDS011;61877;48.246;9.220;2022-09-12T05:57:47;14.40;;;4.50;;
73599;SDS011;61877;48.246;9.220;2022-09-12T06:00:13;14.27;;;4.50;;
73599;SDS011;61877;48.246;9.220;2022-09-12T06:02:39;12.67;;;4.10;;
73599;SDS011;61877;48.246;9.220;2022-09-12T06:05:04;15.25;;;4.57;;
73599;SDS011;61877;48.246;9.220;2022-09-12T06:07:30;10.48;;;4.07;;
73599;SDS011;61877;48.246;9.220;2022-09-12T06:09:55;15.57;;;4.73;;
73599;SDS011;61877;48.246;9.220;2022-09-12T06:12:21;12.47;;;4.33;;
73599;SDS011;61877;48.246;9.220;2022-09-12T06:14:47;9.47;;;4.60;;
73599;SDS011;61877;48.246;9.220;2022-09-12T06:17:13;10.80;;;4.70;;
73599;SDS011;61877;48.246;9.220;2022-09-12T06:19:38;10.67;;;4.50;;
73599;SDS011;61877;48.246;9.220;2022-09-12T06:22:04;14.63;;;4.80;;
73599;SDS011;61877;48.246;9.220;2022-09-12T06:24:29;15.20;;;4.30;;
73599;SDS011;61877;48.246;9.220;2022-09-12T06:26:54;10.70;;;4.40;;
73599;SDS011;61877;48.246;9.220;2022-09-12T06:29:20;13.57;;;4.57;;
73599;SDS011;61877;48.246;9.220;2022-09-12T06:31:46;11.47;;;4.77;;
73599;SDS011;61877;48.246;9.220;2022-09-12T06:34:13;10.50;;;5.18;;
73599;SDS011;61877;48.246;9.220;2022-09-12T06:36:40;10.75;;;4.80;;
73599;SDS011;61877;48.246;9.220;2022-09-12T06:39:08;12.20;;;4.97;;
73599;SDS011;61877;48.246;9.220;2022-09-12T06:41:38;10.30;;;4.67;;
73599;SDS011;61877;48.246;9.220;2022-09-12T06:44:04;10.15;;;4.45;;
73599;SDS011;61877;48.246;9.220;2022-09-12T06:46:29;10.32;;;5.30;;
73599;SDS011;61877;48.246;9.220;2022-09-12T06:48:57;10.60;;;5.30;;
73599;SDS011;61877;48.246;9.220;2022-09-12T06:51:24;9.80;;;4.70;;
73599;SDS011;61877;48.246;9.220;2022-09-12T06:53:50;10.55;;;4.57;;
73599;SDS011;61877;48.246;9.220;2022-09-12T06:56:20;9.65;;;4.80;;
73599;SDS011;61877;48.246;9.220;2022-09-12T06:58:47;9.63;;;4.53;;
73599;SDS011;61877;48.246;9.220;2022-09-12T07:01:14;9.40;;;4.82;;
73599;SDS011;61877;48.246;9.220;2022-09-12T07:03:40;9.32;;;4.40;;
73599;SDS011;61877;48.246;9.220;2022-09-12T07:06:09;9.65;;;4.65;;
73599;SDS011;61877;48.246;9.220;2022-09-12T07:08:36;9.38;;;4.57;;
73599;SDS011;61877;48.246;9.220;2022-09-12T07:11:09;9.53;;;4.30;;
73599;SDS011;61877;48.246;9.220;2022-09-12T07:13:36;9.60;;;4.63;;
73599;SDS011;61877;48.246;9.220;2022-09-12T07:16:01;9.53;;;4.90;;
73599;SDS011;61877;48.246;9.220;2022-09-12T07:18:27;9.05;;;4.40;;
73599;SDS011;61877;48.246;9.220;2022-09-12T07:20:52;10.20;;;4.90;;
73599;SDS011;61877;48.246;9.220;2022-09-12T07:23:19;8.73;;;4.28;;
73599;SDS011;61877;48.246;9.220;2022-09-12T07:25:50;8.90;;;4.40;;
73599;SDS011;61877;48.246;9.220;2022-09-12T07:28:16;10.93;;;4.10;;
73599;SDS011;61877;48.246;9.220;2022-09-12T07:30:41;9.27;;;5.00;;
73599;SDS011;61877;48.246;9.220;2022-09-12T07:33:07;9.77;;;4.60;;
73599;SDS011;61877;48.246;9.220;2022-09-12T07:35:32;9.17;;;4.53;;
73599;SDS011;61877;48.246;9.220;2022-09-12T07:37:58;9.20;;;4.37;;
73599;SDS011;61877;48.246;9.220;2022-09-12T07:40:25;8.70;;;4.15;;
73599;SDS011;61877;48.246;9.220;2022-09-12T07:42:50;8.70;;;4.07;;
73599;SDS011;61877;48.246;9.220;2022-09-12T07:45:16;8.82;;;4.25;;
73599;SDS011;61877;48.246;9.220;2022-09-12T07:47:41;8.57;;;4.20;;
73599;SDS011;61877;48.246;9.220;2022-09-12T07:50:07;8.47;;;3.80;;
73599;SDS011;61877;48.246;9.220;2022-09-12T07:52:32;7.97;;;3.75;;
73599;SDS011;61877;48.246;9.220;2022-09-12T07:54:58;8.40;;;4.20;;
73599;SDS011;61877;48.246;9.220;2022-09-12T07:57:24;10.87;;;4.10;;
73599;SDS011;61877;48.246;9.220;2022-09-12T07:59:50;8.55;;;4.10;;
73599;SDS011;61877;48.246;9.220;2022-09-12T08:02:15;8.20;;;3.70;;
73599;SDS011;61877;48.246;9.220;2022-09-12T08:04:41;7.73;;;3.47;;
73599;SDS011;61877;48.246;9.220;2022-09-12T08:07:06;7.38;;;3.17;;
73599;SDS011;61877;48.246;9.220;2022-09-12T08:09:32;8.13;;;3.20;;
73599;SDS011;61877;48.246;9.220;2022-09-12T08:11:57;7.60;;;3.57;;
73599;SDS011;61877;48.246;9.220;2022-09-12T08:14:33;7.72;;;3.10;;
73599;SDS011;61877;48.246;9.220;2022-09-12T08:16:58;6.82;;;2.90;;
73599;SDS011;61877;48.246;9.220;2022-09-12T08:19:24;7.73;;;3.23;;
73599;SDS011;61877;48.246;9.220;2022-09-12T08:21:49;7.33;;;3.30;;
73599;SDS011;61877;48.246;9.220;2022-09-12T08:24:15;6.68;;;3.08;;
73599;SDS011;61877;48.246;9.220;2022-09-12T08:26:41;6.90;;;2.63;;
73599;SDS011;61877;48.246;9.220;2022-09-12T08:29:06;6.00;;;2.37;;
73599;SDS011;61877;48.246;9.220;2022-09-12T08:31:33;6.50;;;2.43;;
73599;SDS011;61877;48.246;9.220;2022-09-12T08:33:59;7.00;;;2.50;;
73599;SDS011;61877;48.246;9.220;2022-09-12T08:36:25;5.97;;;2.30;;
73599;SDS011;61877;48.246;9.220;2022-09-12T08:38:54;6.03;;;2.05;;
73599;SDS011;61877;48.246;9.220;2022-09-12T08:41:21;5.63;;;2.25;;
73599;SDS011;61877;48.246;9.220;2022-09-12T08:46:46;6.27;;;2.20;;
73599;SDS011;61877;48.246;9.220;2022-09-12T08:49:27;5.60;;;2.10;;
73599;SDS011;61877;48.246;9.220;2022-09-12T08:51:56;6.00;;;2.35;;
73599;SDS011;61877;48.246;9.220;2022-09-12T08:54:24;5.85;;;2.50;;
73599;SDS011;61877;48.246;9.220;2022-09-12T08:56:51;5.78;;;2.15;;
73599;SDS011;61877;48.246;9.220;2022-09-12T08:59:21;5.50;;;1.90;;
73599;SDS011;61877;48.246;9.220;2022-09-12T09:04:57;5.80;;;2.03;;
73599;SDS011;61877;48.246;9.220;2022-09-12T09:07:37;5.30;;;1.90;;
73599;SDS011;61877;48.246;9.220;2022-09-12T09:10:22;5.30;;;1.98;;
73599;SDS011;61877;48.246;9.220;2022-09-12T09:12:57;6.43;;;2.08;;
73599;SDS011;61877;48.246;9.220;2022-09-12T09:15:33;5.40;;;1.90;;
73599;SDS011;61877;48.246;9.220;2022-09-12T09:18:07;5.40;;;1.97;;
73599;SDS011;61877;48.246;9.220;2022-09-12T09:20:41;5.85;;;2.13;;
73599;SDS011;61877;48.246;9.220;2022-09-12T09:23:13;6.00;;;1.90;;
73599;SDS011;61877;48.246;9.220;2022-09-12T09:25:47;5.47;;;1.90;;
73599;SDS011;61877;48.246;9.220;2022-09-12T09:28:18;6.05;;;2.10;;
73599;SDS011;61877;48.246;9.220;2022-09-12T09:30:47;6.23;;;2.17;;
73599;SDS011;61877;48.246;9.220;2022-09-12T09:33:16;5.80;;;1.80;;
73599;SDS011;61877;48.246;9.220;2022-09-12T09:35:46;5.40;;;1.85;;
73599;SDS011;61877;48.246;9.220;2022-09-12T09:38:21;5.20;;;1.80;;
73599;SDS011;61877;48.246;9.220;2022-09-12T09:40:51;5.90;;;1.98;;
73599;SDS011;61877;48.246;9.220;2022-09-12T09:43:28;5.10;;;1.80;;
73599;SDS011;61877;48.246;9.220;2022-09-12T09:45:54;5.67;;;1.90;;
73599;SDS011;61877;48.246;9.220;2022-09-12T09:48:21;5.13;;;1.60;;
73599;SDS011;61877;48.246;9.220;2022-09-12T09:50:52;5.10;;;1.60;;
73599;SDS011;61877;48.246;9.220;2022-09-12T09:53:22;5.97;;;1.88;;
73599;SDS011;61877;48.246;9.220;2022-09-12T09:55:52;5.82;;;1.88;;
73599;SDS011;61877;48.246;9.220;2022-09-12T09:58:29;6.60;;;1.80;;
73599;SDS011;61877;48.246;9.220;2022-09-12T10:00:57;6.18;;;2.00;;
73599;SDS011;61877;48.246;9.220;2022-09-12T10:03:24;5.70;;;1.80;;
73599;SDS011;61877;48.246;9.220;2022-09-12T10:05:56;4.97;;;1.63;;
73599;SDS011;61877;48.246;9.220;2022-09-12T10:08:24;6.50;;;2.05;;
73599;SDS011;61877;48.246;9.220;2022-09-12T10:10:52;5.10;;;1.60;;
73599;SDS011;61877;48.246;9.220;2022-09-12T10:13:22;4.97;;;1.70;;
73599;SDS011;61877;48.246;9.220;2022-09-12T10:15:55;5.10;;;1.75;;
73599;SDS011;61877;48.246;9.220;2022-09-12T10:18:31;5.75;;;1.58;;
73599;SDS011;61877;48.246;9.220;2022-09-12T10:20:59;5.80;;;1.95;;
73599;SDS011;61877;48.246;9.220;2022-09-12T10:23:27;5.57;;;1.70;;
73599;SDS011;61877;48.246;9.220;2022-09-12T10:25:58;5.57;;;2.10;;
73599;SDS011;61877;48.246;9.220;2022-09-12T10:28:28;5.35;;;1.90;;
73599;SDS011;61877;48.246;9.220;2022-09-12T10:30:57;5.07;;;1.80;;
73599;SDS011;61877;48.246;9.220;2022-09-12T10:33:22;5.33;;;1.90;;
73599;SDS011;61877;48.246;9.220;2022-09-12T10:35:50;5.30;;;1.70;;
73599;SDS011;61877;48.246;9.220;2022-09-12T10:38:21;5.10;;;1.70;;
73599;SDS011;61877;48.246;9.220;2022-09-12T10:40:54;5.00;;;1.70;;
73599;SDS011;61877;48.246;9.220;2022-09-12T10:43:25;5.00;;;1.50;;
73599;SDS011;61877;48.246;9.220;2022-09-12T10:45:55;5.28;;;1.50;;
73599;SDS011;61877;48.246;9.220;2022-09-12T10:48:23;5.75;;;1.67;;
73599;SDS011;61877;48.246;9.220;2022-09-12T10:50:51;5.00;;;1.58;;
73599;SDS011;61877;48.246;9.220;2022-09-12T10:53:18;5.40;;;1.47;;
73599;SDS011;61877;48.246;9.220;2022-09-12T10:55:54;5.10;;;1.60;;
73599;SDS011;61877;48.246;9.220;2022-09-12T10:58:35;5.00;;;1.50;;
73599;SDS011;61877;48.246;9.220;2022-09-12T11:01:13;5.23;;;1.40;;
73599;SDS011;61877;48.246;9.220;2022-09-12T11:03:52;4.60;;;1.35;;
73599;SDS011;61877;48.246;9.220;2022-09-12T11:06:34;4.90;;;1.60;;
73599;SDS011;61877;48.246;9.220;2022-09-12T11:09:14;4.88;;;1.35;;
73599;SDS011;61877;48.246;9.220;2022-09-12T11:11:53;4.70;;;1.25;;
73599;SDS011;61877;48.246;9.220;2022-09-12T11:14:29;5.33;;;1.43;;
73599;SDS011;61877;48.246;9.220;2022-09-12T11:17:06;4.60;;;1.30;;
73599;SDS011;61877;48.246;9.220;2022-09-12T11:19:52;4.85;;;1.50;;
73599;SDS011;61877;48.246;9.220;2022-09-12T11:22:35;4.80;;;1.50;;
73599;SDS011;61877;48.246;9.220;2022-09-12T11:25:22;5.18;;;1.35;;
73599;SDS011;61877;48.246;9.220;2022-09-12T11:30:53;4.82;;;1.40;;
73599;SDS011;61877;48.246;9.220;2022-09-12T11:33:34;5.05;;;1.48;;
73599;SDS011;61877;48.246;9.220;2022-09-12T11:36:06;4.90;;;1.58;;
73599;SDS011;61877;48.246;9.220;2022-09-12T11:38:44;5.32;;;1.50;;
73599;SDS011;61877;48.246;9.220;2022-09-12T11:41:17;4.90;;;1.37;;
73599;SDS011;61877;48.246;9.220;2022-09-12T11:43:49;4.95;;;1.60;;
73599;SDS011;61877;48.246;9.220;2022-09-12T11:46:22;5.25;;;1.50;;
73599;SDS011;61877;48.246;9.220;2022-09-12T11:48:54;5.25;;;1.60;;
73599;SDS011;61877;48.246;9.220;2022-09-12T11:51:24;4.90;;;1.50;;
73599;SDS011;61877;48.246;9.220;2022-09-12T11:53:57;5.10;;;1.60;;
73599;SDS011;61877;48.246;9.220;2022-09-12T11:56:29;5.30;;;1.70;;
73599;SDS011;61877;48.246;9.220;2022-09-12T11:58:57;4.90;;;1.60;;
73599;SDS011;61877;48.246;9.220;2022-09-12T12:01:29;5.00;;;1.40;;
73599;SDS011;61877;48.246;9.220;2022-09-12T12:04:05;5.18;;;1.65;;
73599;SDS011;61877;48.246;9.220;2022-09-12T12:06:38;4.90;;;1.53;;
73599;SDS011;61877;48.246;9.220;2022-09-12T12:09:11;5.18;;;1.70;;
73599;SDS011;61877;48.246;9.220;2022-09-12T12:11:39;4.90;;;1.65;;
73599;SDS011;61877;48.246;9.220;2022-09-12T12:14:12;5.20;;;1.83;;
73599;SDS011;61877;48.246;9.220;2022-09-12T12:16:41;5.63;;;1.70;;
73599;SDS011;61877;48.246;9.220;2022-09-12T12:19:08;6.30;;;1.57;;
73599;SDS011;61877;48.246;9.220;2022-09-12T12:21:51;5.30;;;1.70;;
73599;SDS011;61877;48.246;9.220;2022-09-12T12:24:18;4.85;;;1.40;;
73599;SDS011;61877;48.246;9.220;2022-09-12T12:26:56;5.10;;;1.50;;
73599;SDS011;61877;48.246;9.220;2022-09-12T12:29:37;5.00;;;1.60;;
73599;SDS011;61877;48.246;9.220;2022-09-12T12:32:18;4.80;;;1.67;;
73599;SDS011;61877;48.246;9.220;2022-09-12T12:34:45;5.10;;;1.40;;
73599;SDS011;61877;48.246;9.220;2022-09-12T12:40:20;5.43;;;1.50;;
73599;SDS011;61877;48.246;9.220;2022-09-12T12:43:00;5.00;;;1.70;;
73599;SDS011;61877;48.246;9.220;2022-09-12T12:45:46;4.80;;;1.50;;
73599;SDS011;61877;48.246;9.220;2022-09-12T12:48:13;5.30;;;1.80;;
73599;SDS011;61877;48.246;9.220;2022-09-12T12:50:41;5.00;;;1.70;;
73599;SDS011;61877;48.246;9.220;2022-09-12T12:53:06;5.10;;;1.40;;
73599;SDS011;61877;48.246;9.220;2022-09-12T12:55:44;4.60;;;1.30;;
73599;SDS011;61877;48.246;9.220;2022-09-12T12:58:21;5.38;;;1.70;;
73599;SDS011;61877;48.246;9.220;2022-09-12T13:01:01;5.30;;;1.40;;
73599;SDS011;61877;48.246;9.220;2022-09-12T13:03:33;4.90;;;1.60;;
73599;SDS011;61877;48.246;9.220;2022-09-12T13:06:01;4.88;;;1.48;;
73599;SDS011;61877;48.246;9.220;2022-09-12T13:08:30;4.90;;;1.80;;
73599;SDS011;61877;48.246;9.220;2022-09-12T13:10:59;4.78;;;1.70;;
73599;SDS011;61877;48.246;9.220;2022-09-12T13:13:29;4.90;;;1.70;;
73599;SDS011;61877;48.246;9.220;2022-09-12T13:15:58;4.87;;;1.67;;
73599;SDS011;61877;48.246;9.220;2022-09-12T13:18:24;5.03;;;1.42;;
73599;SDS011;61877;48.246;9.220;2022-09-12T13:20:54;5.72;;;1.70;;
73599;SDS011;61877;48.246;9.220;2022-09-12T13:23:26;4.90;;;1.60;;
73599;SDS011;61877;48.246;9.220;2022-09-12T13:25:53;5.07;;;1.70;;
73599;SDS011;61877;48.246;9.220;2022-09-12T13:28:20;4.72;;;1.50;;
73599;SDS011;61877;48.246;9.220;2022-09-12T13:30:53;5.43;;;1.60;;
73599;SDS011;61877;48.246;9.220;2022-09-12T13:33:22;6.10;;;1.60;;
73599;SDS011;61877;48.246;9.220;2022-09-12T13:36:00;4.95;;;1.80;;
73599;SDS011;61877;48.246;9.220;2022-09-12T13:38:41;4.90;;;1.67;;
73599;SDS011;61877;48.246;9.220;2022-09-12T13:41:23;4.90;;;1.60;;
73599;SDS011;61877;48.246;9.220;2022-09-12T13:44:00;5.30;;;1.90;;
73599;SDS011;61877;48.246;9.220;2022-09-12T13:46:29;5.07;;;1.50;;
73599;SDS011;61877;48.246;9.220;2022-09-12T13:48:57;5.05;;;1.65;;
73599;SDS011;61877;48.246;9.220;2022-09-12T13:51:25;4.85;;;1.70;;
73599;SDS011;61877;48.246;9.220;2022-09-12T13:53:54;5.05;;;1.60;;
73599;SDS011;61877;48.246;9.220;2022-09-12T13:56:23;5.07;;;1.60;;
73599;SDS011;61877;48.246;9.220;2022-09-12T13:58:52;5.40;;;1.70;;
73599;SDS011;61877;48.246;9.220;2022-09-12T14:01:18;4.90;;;1.52;;
73599;SDS011;61877;48.246;9.220;2022-09-12T14:03:48;5.47;;;1.90;;
73599;SDS011;61877;48.246;9.220;2022-09-12T14:06:15;5.10;;;1.45;;
73599;SDS011;61877;48.246;9.220;2022-09-12T14:08:41;5.10;;;1.90;;
73599;SDS011;61877;48.246;9.220;2022-09-12T14:11:08;5.00;;;1.80;;
73599;SDS011;61877;48.246;9.220;2022-09-12T14:13:34;4.95;;;1.80;;
73599;SDS011;61877;48.246;9.220;2022-09-12T14:16:00;5.30;;;1.50;;
73599;SDS011;61877;48.246;9.220;2022-09-12T14:18:27;4.95;;;1.90;;
73599;SDS011;61877;48.246;9.220;2022-09-12T14:20:56;4.70;;;1.58;;
73599;SDS011;61877;48.246;9.220;2022-09-12T14:23:29;4.80;;;1.60;;
73599;SDS011;61877;48.246;9.220;2022-09-12T14:25:56;4.90;;;1.80;;
73599;SDS011;61877;48.246;9.220;2022-09-12T14:28:22;5.13;;;1.70;;
73599;SDS011;61877;48.246;9.220;2022-09-12T14:31:00;4.90;;;1.60;;
73599;SDS011;61877;48.246;9.220;2022-09-12T14:33:27;5.47;;;1.73;;
73599;SDS011;61877;48.246;9.220;2022-09-12T14:36:07;5.00;;;1.70;;
73599;SDS011;61877;48.246;9.220;2022-09-12T14:38:42;6.20;;;1.70;;
73599;SDS011;61877;48.246;9.220;2022-09-12T14:41:10;5.00;;;2.00;;
73599;SDS011;61877;48.246;9.220;2022-09-12T14:43:44;4.80;;;1.73;;
73599;SDS011;61877;48.246;9.220;2022-09-12T14:46:15;4.90;;;1.80;;
73599;SDS011;61877;48.246;9.220;2022-09-12T14:48:45;5.30;;;2.30;;
73599;SDS011;61877;48.246;9.220;2022-09-12T14:51:18;5.00;;;1.90;;
73599;SDS011;61877;48.246;9.220;2022-09-12T14:53:46;5.57;;;2.00;;
73599;SDS011;61877;48.246;9.220;2022-09-12T14:56:12;5.30;;;1.88;;
73599;SDS011;61877;48.246;9.220;2022-09-12T14:58:40;5.50;;;2.30;;
73599;SDS011;61877;48.246;9.220;2022-09-12T15:01:22;5.20;;;2.30;;
73599;SDS011;61877;48.246;9.220;2022-09-12T15:03:49;5.68;;;2.45;;
73599;SDS011;61877;48.246;9.220;2022-09-12T15:06:19;5.85;;;2.20;;
73599;SDS011;61877;48.246;9.220;2022-09-12T15:08:48;5.65;;;2.22;;
73599;SDS011;61877;48.246;9.220;2022-09-12T15:11:16;5.33;;;2.50;;
73599;SDS011;61877;48.246;9.220;2022-09-12T15:13:42;5.80;;;2.88;;
73599;SDS011;61877;48.246;9.220;2022-09-12T15:16:08;5.40;;;2.90;;